sensor_id;sensor_type;location;lat;lon;timestamp;P1;durP1;ratioP1;P2;durP2;ratioP2
20232;SDS011;37438;55.674;13.074;2023-03-02T00:02:20;10.77;;;8.60;;
20232;SDS011;37438;55.674;13.074;2023-03-02T00:05:28;10.93;;;7.90;;
20232;SDS011;37438;55.674;13.074;2023-03-02T00:08:33;14.05;;;7.90;;
20232;SDS011;37438;55.674;13.074;2023-03-02T00:11:39;10.93;;;7.18;;
20232;SDS011;37438;55.674;13.074;2023-03-02T00:14:43;12.75;;;8.95;;
20232;SDS011;37438;55.674;13.074;2023-03-02T00:17:48;15.52;;;8.80;;
20232;SDS011;37438;55.674;13.074;2023-03-02T00:20:52;12.98;;;7.18;;
20232;SDS011;37438;55.674;13.074;2023-03-02T00:23:57;11.30;;;8.20;;
20232;SDS011;37438;55.674;13.074;2023-03-02T00:27:01;12.98;;;7.63;;
20232;SDS011;37438;55.674;13.074;2023-03-02T00:30:06;9.87;;;7.53;;
20232;SDS011;37438;55.674;13.074;2023-03-02T00:33:11;12.35;;;8.48;;
20232;SDS011;37438;55.674;13.074;2023-03-02T00:36:16;12.37;;;7.13;;
20232;SDS011;37438;55.674;13.074;2023-03-02T00:39:21;12.43;;;8.25;;
20232;SDS011;37438;55.674;13.074;2023-03-02T00:42:26;12.68;;;8.13;;
20232;SDS011;37438;55.674;13.074;2023-03-02T00:45:31;13.40;;;8.82;;
20232;SDS011;37438;55.674;13.074;2023-03-02T00:48:35;8.17;;;5.57;;
20232;SDS011;37438;55.674;13.074;2023-03-02T00:51:39;10.30;;;7.22;;
20232;SDS011;37438;55.674;13.074;2023-03-02T00:54:44;8.35;;;5.20;;
20232;SDS011;37438;55.674;13.074;2023-03-02T00:57:52;11.77;;;7.67;;
20232;SDS011;37438;55.674;13.074;2023-03-02T01:01:08;18.75;;;7.78;;
20232;SDS011;37438;55.674;13.074;2023-03-02T01:04:19;10.90;;;7.32;;
20232;SDS011;37438;55.674;13.074;2023-03-02T01:07:24;15.30;;;8.25;;
20232;SDS011;37438;55.674;13.074;2023-03-02T01:10:31;14.20;;;8.10;;
20232;SDS011;37438;55.674;13.074;2023-03-02T01:13:36;15.15;;;8.48;;
20232;SDS011;37438;55.674;13.074;2023-03-02T01:19:46;13.68;;;7.47;;
20232;SDS011;37438;55.674;13.074;2023-03-02T01:22:51;12.00;;;7.70;;
20232;SDS011;37438;55.674;13.074;2023-03-02T01:25:55;10.38;;;6.82;;
20232;SDS011;37438;55.674;13.074;2023-03-02T01:29:00;11.70;;;7.50;;
20232;SDS011;37438;55.674;13.074;2023-03-02T01:32:04;15.02;;;8.07;;
20232;SDS011;37438;55.674;13.074;2023-03-02T01:35:09;14.17;;;9.13;;
20232;SDS011;37438;55.674;13.074;2023-03-02T01:38:13;12.87;;;9.23;;
20232;SDS011;37438;55.674;13.074;2023-03-02T01:41:18;11.68;;;8.75;;
20232;SDS011;37438;55.674;13.074;2023-03-02T01:44:43;10.93;;;8.00;;
20232;SDS011;37438;55.674;13.074;2023-03-02T01:47:49;15.95;;;8.88;;
20232;SDS011;37438;55.674;13.074;2023-03-02T01:50:55;15.52;;;8.07;;
20232;SDS011;37438;55.674;13.074;2023-03-02T01:54:04;12.98;;;8.52;;
20232;SDS011;37438;55.674;13.074;2023-03-02T01:57:12;10.68;;;7.88;;
20232;SDS011;37438;55.674;13.074;2023-03-02T02:00:20;23.48;;;9.20;;
20232;SDS011;37438;55.674;13.074;2023-03-02T02:03:27;23.77;;;10.43;;
20232;SDS011;37438;55.674;13.074;2023-03-02T02:06:36;18.23;;;9.68;;
20232;SDS011;37438;55.674;13.074;2023-03-02T02:09:44;17.80;;;9.45;;
20232;SDS011;37438;55.674;13.074;2023-03-02T02:12:52;23.75;;;9.07;;
20232;SDS011;37438;55.674;13.074;2023-03-02T02:15:57;13.57;;;8.50;;
20232;SDS011;37438;55.674;13.074;2023-03-02T02:19:03;16.10;;;8.88;;
20232;SDS011;37438;55.674;13.074;2023-03-02T02:22:14;16.75;;;10.40;;
20232;SDS011;37438;55.674;13.074;2023-03-02T02:29:03;20.17;;;10.25;;
20232;SDS011;37438;55.674;13.074;2023-03-02T02:32:16;14.63;;;9.63;;
20232;SDS011;37438;55.674;13.074;2023-03-02T02:35:29;15.60;;;8.95;;
20232;SDS011;37438;55.674;13.074;2023-03-02T02:38:38;11.57;;;8.55;;
20232;SDS011;37438;55.674;13.074;2023-03-02T02:41:44;12.55;;;8.80;;
20232;SDS011;37438;55.674;13.074;2023-03-02T02:44:53;14.27;;;8.70;;
20232;SDS011;37438;55.674;13.074;2023-03-02T02:48:01;13.65;;;8.57;;
20232;SDS011;37438;55.674;13.074;2023-03-02T02:51:07;16.33;;;8.70;;
20232;SDS011;37438;55.674;13.074;2023-03-02T02:54:13;15.82;;;8.23;;
20232;SDS011;37438;55.674;13.074;2023-03-02T02:57:22;15.13;;;8.88;;
20232;SDS011;37438;55.674;13.074;2023-03-02T03:00:30;14.65;;;10.15;;
20232;SDS011;37438;55.674;13.074;2023-03-02T03:03:36;13.50;;;8.90;;
20232;SDS011;37438;55.674;13.074;2023-03-02T03:07:04;15.35;;;8.57;;
20232;SDS011;37438;55.674;13.074;2023-03-02T03:10:10;17.48;;;8.73;;
20232;SDS011;37438;55.674;13.074;2023-03-02T03:13:31;17.88;;;9.25;;
20232;SDS011;37438;55.674;13.074;2023-03-02T03:16:37;14.13;;;8.95;;
20232;SDS011;37438;55.674;13.074;2023-03-02T03:19:44;15.82;;;8.88;;
20232;SDS011;37438;55.674;13.074;2023-03-02T03:25:56;14.55;;;9.02;;
20232;SDS011;37438;55.674;13.074;2023-03-02T03:29:02;14.20;;;9.55;;
20232;SDS011;37438;55.674;13.074;2023-03-02T03:32:06;13.50;;;9.13;;
20232;SDS011;37438;55.674;13.074;2023-03-02T03:38:16;14.27;;;9.23;;
20232;SDS011;37438;55.674;13.074;2023-03-02T03:41:22;11.23;;;7.80;;
20232;SDS011;37438;55.674;13.074;2023-03-02T03:47:33;10.65;;;7.82;;
20232;SDS011;37438;55.674;13.074;2023-03-02T03:50:39;14.93;;;8.73;;
20232;SDS011;37438;55.674;13.074;2023-03-02T03:53:44;15.67;;;9.57;;
20232;SDS011;37438;55.674;13.074;2023-03-02T03:56:49;14.68;;;9.02;;
20232;SDS011;37438;55.674;13.074;2023-03-02T04:02:59;20.63;;;9.32;;
20232;SDS011;37438;55.674;13.074;2023-03-02T04:06:06;14.90;;;9.13;;
20232;SDS011;37438;55.674;13.074;2023-03-02T04:09:11;13.60;;;8.15;;
20232;SDS011;37438;55.674;13.074;2023-03-02T04:12:18;15.15;;;9.02;;
20232;SDS011;37438;55.674;13.074;2023-03-02T04:15:27;15.88;;;10.23;;
20232;SDS011;37438;55.674;13.074;2023-03-02T04:18:34;16.23;;;8.60;;
20232;SDS011;37438;55.674;13.074;2023-03-02T04:21:39;17.13;;;8.97;;
20232;SDS011;37438;55.674;13.074;2023-03-02T04:24:48;16.38;;;8.88;;
20232;SDS011;37438;55.674;13.074;2023-03-02T04:27:53;17.40;;;9.85;;
20232;SDS011;37438;55.674;13.074;2023-03-02T04:31:01;19.45;;;9.77;;
20232;SDS011;37438;55.674;13.074;2023-03-02T04:34:05;17.00;;;9.82;;
20232;SDS011;37438;55.674;13.074;2023-03-02T04:37:12;15.20;;;9.55;;
20232;SDS011;37438;55.674;13.074;2023-03-02T04:40:19;12.88;;;9.13;;
20232;SDS011;37438;55.674;13.074;2023-03-02T04:43:23;10.93;;;7.53;;
20232;SDS011;37438;55.674;13.074;2023-03-02T04:46:31;14.10;;;7.75;;
20232;SDS011;37438;55.674;13.074;2023-03-02T04:49:37;14.70;;;8.95;;
20232;SDS011;37438;55.674;13.074;2023-03-02T04:52:42;9.98;;;6.07;;
20232;SDS011;37438;55.674;13.074;2023-03-02T04:55:47;13.57;;;9.40;;
20232;SDS011;37438;55.674;13.074;2023-03-02T04:58:52;15.68;;;8.20;;
20232;SDS011;37438;55.674;13.074;2023-03-02T05:01:57;12.27;;;6.40;;
20232;SDS011;37438;55.674;13.074;2023-03-02T05:05:02;13.63;;;9.30;;
20232;SDS011;37438;55.674;13.074;2023-03-02T05:08:07;16.98;;;7.10;;
20232;SDS011;37438;55.674;13.074;2023-03-02T05:11:12;12.87;;;8.33;;
20232;SDS011;37438;55.674;13.074;2023-03-02T05:14:26;13.75;;;8.95;;
20232;SDS011;37438;55.674;13.074;2023-03-02T05:17:32;11.18;;;7.60;;
20232;SDS011;37438;55.674;13.074;2023-03-02T05:20:36;14.68;;;8.13;;
20232;SDS011;37438;55.674;13.074;2023-03-02T05:23:42;12.45;;;8.27;;
20232;SDS011;37438;55.674;13.074;2023-03-02T05:26:47;15.77;;;9.50;;
20232;SDS011;37438;55.674;13.074;2023-03-02T05:29:51;14.47;;;9.00;;
20232;SDS011;37438;55.674;13.074;2023-03-02T05:32:56;13.02;;;8.27;;
20232;SDS011;37438;55.674;13.074;2023-03-02T05:36:00;12.15;;;8.05;;
20232;SDS011;37438;55.674;13.074;2023-03-02T05:39:05;13.57;;;9.00;;
20232;SDS011;37438;55.674;13.074;2023-03-02T05:42:10;13.43;;;8.23;;
20232;SDS011;37438;55.674;13.074;2023-03-02T05:45:22;9.80;;;7.00;;
20232;SDS011;37438;55.674;13.074;2023-03-02T05:48:29;16.27;;;8.30;;
20232;SDS011;37438;55.674;13.074;2023-03-02T05:54:39;14.70;;;8.75;;
20232;SDS011;37438;55.674;13.074;2023-03-02T05:57:44;13.00;;;6.85;;
20232;SDS011;37438;55.674;13.074;2023-03-02T06:00:48;14.77;;;9.40;;
20232;SDS011;37438;55.674;13.074;2023-03-02T06:03:53;10.48;;;6.35;;
20232;SDS011;37438;55.674;13.074;2023-03-02T06:06:58;17.65;;;9.27;;
20232;SDS011;37438;55.674;13.074;2023-03-02T06:10:03;10.63;;;6.97;;
20232;SDS011;37438;55.674;13.074;2023-03-02T06:13:09;24.88;;;9.45;;
20232;SDS011;37438;55.674;13.074;2023-03-02T06:16:13;15.93;;;9.37;;
20232;SDS011;37438;55.674;13.074;2023-03-02T06:19:18;14.70;;;9.00;;
20232;SDS011;37438;55.674;13.074;2023-03-02T06:22:22;12.70;;;8.18;;
20232;SDS011;37438;55.674;13.074;2023-03-02T06:25:27;16.33;;;8.93;;
20232;SDS011;37438;55.674;13.074;2023-03-02T06:28:32;17.92;;;10.32;;
20232;SDS011;37438;55.674;13.074;2023-03-02T06:31:54;16.40;;;10.35;;
20232;SDS011;37438;55.674;13.074;2023-03-02T06:34:59;22.97;;;12.57;;
20232;SDS011;37438;55.674;13.074;2023-03-02T06:38:04;24.20;;;12.40;;
20232;SDS011;37438;55.674;13.074;2023-03-02T06:41:08;23.43;;;13.27;;
20232;SDS011;37438;55.674;13.074;2023-03-02T06:44:13;34.17;;;14.20;;
20232;SDS011;37438;55.674;13.074;2023-03-02T06:47:20;24.70;;;12.95;;
20232;SDS011;37438;55.674;13.074;2023-03-02T06:50:25;25.33;;;13.80;;
20232;SDS011;37438;55.674;13.074;2023-03-02T06:53:31;29.23;;;14.40;;
20232;SDS011;37438;55.674;13.074;2023-03-02T06:56:35;28.43;;;15.00;;
20232;SDS011;37438;55.674;13.074;2023-03-02T06:59:42;26.58;;;15.02;;
20232;SDS011;37438;55.674;13.074;2023-03-02T07:02:47;20.58;;;13.02;;
20232;SDS011;37438;55.674;13.074;2023-03-02T07:08:56;27.33;;;12.77;;
20232;SDS011;37438;55.674;13.074;2023-03-02T07:12:01;27.27;;;12.27;;
20232;SDS011;37438;55.674;13.074;2023-03-02T07:15:06;25.02;;;11.82;;
20232;SDS011;37438;55.674;13.074;2023-03-02T07:18:14;23.30;;;13.15;;
20232;SDS011;37438;55.674;13.074;2023-03-02T07:21:19;23.70;;;13.82;;
20232;SDS011;37438;55.674;13.074;2023-03-02T07:24:23;22.42;;;12.27;;
20232;SDS011;37438;55.674;13.074;2023-03-02T07:27:27;30.30;;;15.37;;
20232;SDS011;37438;55.674;13.074;2023-03-02T07:30:32;24.63;;;13.75;;
20232;SDS011;37438;55.674;13.074;2023-03-02T07:33:37;21.03;;;13.23;;
20232;SDS011;37438;55.674;13.074;2023-03-02T07:36:42;31.30;;;13.38;;
20232;SDS011;37438;55.674;13.074;2023-03-02T07:39:47;13.27;;;9.30;;
20232;SDS011;37438;55.674;13.074;2023-03-02T07:45:57;15.73;;;9.73;;
20232;SDS011;37438;55.674;13.074;2023-03-02T07:49:02;14.20;;;9.13;;
20232;SDS011;37438;55.674;13.074;2023-03-02T07:52:07;12.15;;;9.23;;
20232;SDS011;37438;55.674;13.074;2023-03-02T07:55:12;17.58;;;10.75;;
20232;SDS011;37438;55.674;13.074;2023-03-02T07:58:16;17.03;;;9.83;;
20232;SDS011;37438;55.674;13.074;2023-03-02T08:01:21;10.15;;;8.02;;
20232;SDS011;37438;55.674;13.074;2023-03-02T08:04:26;15.32;;;7.50;;
20232;SDS011;37438;55.674;13.074;2023-03-02T08:07:30;4.82;;;4.25;;
20232;SDS011;37438;55.674;13.074;2023-03-02T08:10:35;7.60;;;4.73;;
20232;SDS011;37438;55.674;13.074;2023-03-02T08:13:40;6.63;;;3.45;;
20232;SDS011;37438;55.674;13.074;2023-03-02T08:16:45;3.20;;;2.42;;
20232;SDS011;37438;55.674;13.074;2023-03-02T08:19:49;3.65;;;2.50;;
20232;SDS011;37438;55.674;13.074;2023-03-02T08:22:54;2.13;;;1.92;;
20232;SDS011;37438;55.674;13.074;2023-03-02T08:25:58;3.78;;;2.28;;
20232;SDS011;37438;55.674;13.074;2023-03-02T08:29:03;2.72;;;2.20;;
20232;SDS011;37438;55.674;13.074;2023-03-02T08:32:09;3.60;;;2.20;;
20232;SDS011;37438;55.674;13.074;2023-03-02T08:35:13;3.10;;;2.33;;
20232;SDS011;37438;55.674;13.074;2023-03-02T08:38:17;3.07;;;2.17;;
20232;SDS011;37438;55.674;13.074;2023-03-02T08:41:22;1.80;;;1.70;;
20232;SDS011;37438;55.674;13.074;2023-03-02T08:44:27;6.55;;;3.28;;
20232;SDS011;37438;55.674;13.074;2023-03-02T08:47:31;8.10;;;2.08;;
20232;SDS011;37438;55.674;13.074;2023-03-02T08:50:35;3.23;;;2.10;;
20232;SDS011;37438;55.674;13.074;2023-03-02T08:53:41;2.55;;;1.80;;
20232;SDS011;37438;55.674;13.074;2023-03-02T08:56:46;4.80;;;2.30;;
20232;SDS011;37438;55.674;13.074;2023-03-02T08:59:51;6.10;;;1.50;;
20232;SDS011;37438;55.674;13.074;2023-03-02T09:02:56;3.88;;;1.90;;
20232;SDS011;37438;55.674;13.074;2023-03-02T09:06:00;3.90;;;1.90;;
20232;SDS011;37438;55.674;13.074;2023-03-02T09:09:05;1.95;;;1.42;;
20232;SDS011;37438;55.674;13.074;2023-03-02T09:12:10;2.78;;;1.30;;
20232;SDS011;37438;55.674;13.074;2023-03-02T09:15:15;6.07;;;1.30;;
20232;SDS011;37438;55.674;13.074;2023-03-02T09:18:19;2.45;;;1.40;;
20232;SDS011;37438;55.674;13.074;2023-03-02T09:21:24;2.45;;;0.93;;
20232;SDS011;37438;55.674;13.074;2023-03-02T09:27:33;2.33;;;0.70;;
20232;SDS011;37438;55.674;13.074;2023-03-02T09:30:37;1.50;;;0.68;;
20232;SDS011;37438;55.674;13.074;2023-03-02T09:33:42;2.80;;;0.80;;
20232;SDS011;37438;55.674;13.074;2023-03-02T09:36:46;2.35;;;0.90;;
20232;SDS011;37438;55.674;13.074;2023-03-02T09:39:50;0.28;;;0.15;;
20232;SDS011;37438;55.674;13.074;2023-03-02T09:46:47;2.80;;;0.60;;
20232;SDS011;37438;55.674;13.074;2023-03-02T09:53:14;0.90;;;0.40;;
20232;SDS011;37438;55.674;13.074;2023-03-02T09:57:03;1.45;;;0.60;;
20232;SDS011;37438;55.674;13.074;2023-03-02T10:03:25;0.43;;;0.43;;
20232;SDS011;37438;55.674;13.074;2023-03-02T10:06:36;2.85;;;0.50;;
20232;SDS011;37438;55.674;13.074;2023-03-02T10:09:40;1.90;;;0.32;;
20232;SDS011;37438;55.674;13.074;2023-03-02T10:19:15;6.13;;;1.48;;
20232;SDS011;37438;55.674;13.074;2023-03-02T10:22:30;1.65;;;0.52;;
20232;SDS011;37438;55.674;13.074;2023-03-02T10:25:45;2.90;;;0.50;;
20232;SDS011;37438;55.674;13.074;2023-03-02T10:29:35;0.65;;;0.50;;
20232;SDS011;37438;55.674;13.074;2023-03-02T10:32:32;2.00;;;1.88;;
20232;SDS011;37438;55.674;13.074;2023-03-02T10:35:46;2.63;;;1.00;;
20232;SDS011;37438;55.674;13.074;2023-03-02T10:38:53;2.78;;;1.15;;
20232;SDS011;37438;55.674;13.074;2023-03-02T10:42:01;3.25;;;1.98;;
20232;SDS011;37438;55.674;13.074;2023-03-02T10:48:29;7.25;;;1.90;;
20232;SDS011;37438;55.674;13.074;2023-03-02T10:51:33;2.45;;;1.85;;
20232;SDS011;37438;55.674;13.074;2023-03-02T10:54:38;2.20;;;1.90;;
20232;SDS011;37438;55.674;13.074;2023-03-02T10:57:43;4.50;;;2.40;;
20232;SDS011;37438;55.674;13.074;2023-03-02T11:00:59;3.70;;;1.85;;
20232;SDS011;37438;55.674;13.074;2023-03-02T11:04:11;4.10;;;1.83;;
20232;SDS011;37438;55.674;13.074;2023-03-02T11:07:19;3.53;;;2.33;;
20232;SDS011;37438;55.674;13.074;2023-03-02T11:13:34;5.78;;;2.03;;
20232;SDS011;37438;55.674;13.074;2023-03-02T11:16:39;5.05;;;2.00;;
20232;SDS011;37438;55.674;13.074;2023-03-02T11:19:44;5.10;;;3.05;;
20232;SDS011;37438;55.674;13.074;2023-03-02T11:22:51;3.50;;;2.15;;
20232;SDS011;37438;55.674;13.074;2023-03-02T11:26:08;4.25;;;2.25;;
20232;SDS011;37438;55.674;13.074;2023-03-02T11:29:40;3.42;;;2.83;;
20232;SDS011;37438;55.674;13.074;2023-03-02T11:32:50;8.15;;;3.58;;
20232;SDS011;37438;55.674;13.074;2023-03-02T11:36:26;3.40;;;2.25;;
20232;SDS011;37438;55.674;13.074;2023-03-02T11:40:17;4.85;;;2.92;;
20232;SDS011;37438;55.674;13.074;2023-03-02T11:43:11;8.23;;;3.55;;
20232;SDS011;37438;55.674;13.074;2023-03-02T11:49:34;3.63;;;2.55;;
20232;SDS011;37438;55.674;13.074;2023-03-02T11:52:47;7.05;;;3.40;;
20232;SDS011;37438;55.674;13.074;2023-03-02T11:55:54;7.20;;;3.72;;
20232;SDS011;37438;55.674;13.074;2023-03-02T11:59:03;4.15;;;2.25;;
20232;SDS011;37438;55.674;13.074;2023-03-02T12:02:31;5.53;;;3.22;;
20232;SDS011;37438;55.674;13.074;2023-03-02T12:05:36;4.20;;;2.67;;
20232;SDS011;37438;55.674;13.074;2023-03-02T12:08:43;4.07;;;2.47;;
20232;SDS011;37438;55.674;13.074;2023-03-02T12:15:33;3.95;;;2.85;;
20232;SDS011;37438;55.674;13.074;2023-03-02T12:18:44;6.65;;;3.28;;
20232;SDS011;37438;55.674;13.074;2023-03-02T12:21:57;4.60;;;2.67;;
20232;SDS011;37438;55.674;13.074;2023-03-02T12:28:30;4.45;;;2.75;;
20232;SDS011;37438;55.674;13.074;2023-03-02T12:31:44;7.00;;;3.20;;
20232;SDS011;37438;55.674;13.074;2023-03-02T12:34:51;6.07;;;1.80;;
20232;SDS011;37438;55.674;13.074;2023-03-02T12:48:40;2.85;;;1.58;;
20232;SDS011;37438;55.674;13.074;2023-03-02T12:58:28;2.97;;;0.73;;
20232;SDS011;37438;55.674;13.074;2023-03-02T13:01:32;2.15;;;0.80;;
20232;SDS011;37438;55.674;13.074;2023-03-02T13:04:37;1.20;;;1.10;;
20232;SDS011;37438;55.674;13.074;2023-03-02T13:07:43;2.83;;;1.17;;
20232;SDS011;37438;55.674;13.074;2023-03-02T13:10:59;3.00;;;1.13;;
20232;SDS011;37438;55.674;13.074;2023-03-02T13:14:21;1.42;;;1.10;;
20232;SDS011;37438;55.674;13.074;2023-03-02T13:17:30;2.57;;;2.13;;
20232;SDS011;37438;55.674;13.074;2023-03-02T13:20:35;2.72;;;1.65;;
20232;SDS011;37438;55.674;13.074;2023-03-02T13:23:44;1.23;;;1.10;;
20232;SDS011;37438;55.674;13.074;2023-03-02T13:26:55;2.25;;;1.17;;
20232;SDS011;37438;55.674;13.074;2023-03-02T13:30:26;1.50;;;0.80;;
20232;SDS011;37438;55.674;13.074;2023-03-02T13:33:33;4.35;;;1.10;;
20232;SDS011;37438;55.674;13.074;2023-03-02T13:36:46;1.95;;;1.13;;
20232;SDS011;37438;55.674;13.074;2023-03-02T13:39:57;3.78;;;1.10;;
20232;SDS011;37438;55.674;13.074;2023-03-02T13:43:03;1.02;;;0.93;;
20232;SDS011;37438;55.674;13.074;2023-03-02T13:52:40;1.45;;;1.00;;
20232;SDS011;37438;55.674;13.074;2023-03-02T13:55:45;2.00;;;1.10;;
20232;SDS011;37438;55.674;13.074;2023-03-02T14:01:54;5.03;;;1.65;;
20232;SDS011;37438;55.674;13.074;2023-03-02T14:04:58;1.80;;;1.38;;
20232;SDS011;37438;55.674;13.074;2023-03-02T14:08:03;7.22;;;1.85;;
20232;SDS011;37438;55.674;13.074;2023-03-02T14:11:09;2.47;;;1.40;;
20232;SDS011;37438;55.674;13.074;2023-03-02T14:14:17;2.15;;;1.20;;
20232;SDS011;37438;55.674;13.074;2023-03-02T14:17:26;3.30;;;1.45;;
20232;SDS011;37438;55.674;13.074;2023-03-02T14:20:31;2.33;;;1.50;;
20232;SDS011;37438;55.674;13.074;2023-03-02T14:23:36;6.82;;;1.45;;
20232;SDS011;37438;55.674;13.074;2023-03-02T14:26:43;4.68;;;1.67;;
20232;SDS011;37438;55.674;13.074;2023-03-02T14:29:50;2.92;;;1.38;;
20232;SDS011;37438;55.674;13.074;2023-03-02T14:32:55;2.88;;;1.30;;
20232;SDS011;37438;55.674;13.074;2023-03-02T14:35:59;3.30;;;1.52;;
20232;SDS011;37438;55.674;13.074;2023-03-02T14:39:17;1.35;;;0.90;;
20232;SDS011;37438;55.674;13.074;2023-03-02T14:42:21;1.48;;;1.30;;
20232;SDS011;37438;55.674;13.074;2023-03-02T14:45:26;3.08;;;1.20;;
20232;SDS011;37438;55.674;13.074;2023-03-02T14:48:33;3.63;;;1.73;;
20232;SDS011;37438;55.674;13.074;2023-03-02T14:51:38;1.00;;;0.80;;
20232;SDS011;37438;55.674;13.074;2023-03-02T14:54:50;3.70;;;1.30;;
20232;SDS011;37438;55.674;13.074;2023-03-02T14:57:58;4.07;;;2.10;;
20232;SDS011;37438;55.674;13.074;2023-03-02T15:01:06;2.55;;;1.10;;
20232;SDS011;37438;55.674;13.074;2023-03-02T15:04:14;2.85;;;1.42;;
20232;SDS011;37438;55.674;13.074;2023-03-02T15:07:18;2.47;;;1.30;;
20232;SDS011;37438;55.674;13.074;2023-03-02T15:10:24;1.95;;;1.23;;
20232;SDS011;37438;55.674;13.074;2023-03-02T15:13:28;2.88;;;1.42;;
20232;SDS011;37438;55.674;13.074;2023-03-02T15:16:33;1.73;;;1.63;;
20232;SDS011;37438;55.674;13.074;2023-03-02T15:19:37;5.00;;;1.10;;
20232;SDS011;37438;55.674;13.074;2023-03-02T15:22:41;2.17;;;1.40;;
20232;SDS011;37438;55.674;13.074;2023-03-02T15:25:46;2.70;;;1.50;;
20232;SDS011;37438;55.674;13.074;2023-03-02T15:28:50;2.72;;;1.48;;
20232;SDS011;37438;55.674;13.074;2023-03-02T15:31:55;2.92;;;1.50;;
20232;SDS011;37438;55.674;13.074;2023-03-02T15:34:59;4.50;;;1.75;;
20232;SDS011;37438;55.674;13.074;2023-03-02T15:38:03;8.05;;;2.00;;
20232;SDS011;37438;55.674;13.074;2023-03-02T15:41:11;3.45;;;2.33;;
20232;SDS011;37438;55.674;13.074;2023-03-02T15:44:18;3.72;;;1.63;;
20232;SDS011;37438;55.674;13.074;2023-03-02T15:47:25;6.82;;;2.13;;
20232;SDS011;37438;55.674;13.074;2023-03-02T15:50:30;3.70;;;2.40;;
20232;SDS011;37438;55.674;13.074;2023-03-02T15:53:36;4.30;;;1.50;;
20232;SDS011;37438;55.674;13.074;2023-03-02T15:56:41;2.42;;;1.60;;
20232;SDS011;37438;55.674;13.074;2023-03-02T15:59:48;2.92;;;1.50;;
20232;SDS011;37438;55.674;13.074;2023-03-02T16:02:52;1.70;;;1.08;;
20232;SDS011;37438;55.674;13.074;2023-03-02T16:05:56;2.08;;;1.40;;
20232;SDS011;37438;55.674;13.074;2023-03-02T16:09:04;2.20;;;1.45;;
20232;SDS011;37438;55.674;13.074;2023-03-02T16:12:09;2.03;;;1.25;;
20232;SDS011;37438;55.674;13.074;2023-03-02T16:15:13;1.27;;;1.08;;
20232;SDS011;37438;55.674;13.074;2023-03-02T16:18:18;1.38;;;0.63;;
20232;SDS011;37438;55.674;13.074;2023-03-02T16:21:23;2.70;;;1.33;;
20232;SDS011;37438;55.674;13.074;2023-03-02T16:24:28;1.35;;;1.08;;
20232;SDS011;37438;55.674;13.074;2023-03-02T16:27:32;2.53;;;0.80;;
20232;SDS011;37438;55.674;13.074;2023-03-02T16:30:37;2.30;;;0.80;;
20232;SDS011;37438;55.674;13.074;2023-03-02T16:36:47;4.30;;;0.30;;
20232;SDS011;37438;55.674;13.074;2023-03-02T16:42:56;2.38;;;0.55;;
20232;SDS011;37438;55.674;13.074;2023-03-02T16:46:01;0.85;;;0.30;;
20232;SDS011;37438;55.674;13.074;2023-03-02T16:49:05;2.20;;;0.77;;
20232;SDS011;37438;55.674;13.074;2023-03-02T16:52:10;0.55;;;0.20;;
20232;SDS011;37438;55.674;13.074;2023-03-02T16:55:16;0.47;;;0.30;;
20232;SDS011;37438;55.674;13.074;2023-03-02T16:58:22;3.83;;;0.35;;
20232;SDS011;37438;55.674;13.074;2023-03-02T17:01:27;0.98;;;0.30;;
20232;SDS011;37438;55.674;13.074;2023-03-02T17:04:31;5.30;;;0.70;;
20232;SDS011;37438;55.674;13.074;2023-03-02T17:07:39;1.83;;;0.57;;
20232;SDS011;37438;55.674;13.074;2023-03-02T17:10:44;3.85;;;1.13;;
20232;SDS011;37438;55.674;13.074;2023-03-02T17:13:49;0.90;;;0.25;;
20232;SDS011;37438;55.674;13.074;2023-03-02T17:16:53;0.75;;;0.45;;
20232;SDS011;37438;55.674;13.074;2023-03-02T17:19:59;3.22;;;0.25;;
20232;SDS011;37438;55.674;13.074;2023-03-02T17:23:04;1.70;;;0.32;;
20232;SDS011;37438;55.674;13.074;2023-03-02T17:26:09;0.77;;;0.30;;
20232;SDS011;37438;55.674;13.074;2023-03-02T17:29:13;0.25;;;0.25;;
20232;SDS011;37438;55.674;13.074;2023-03-02T17:32:20;0.88;;;0.20;;
20232;SDS011;37438;55.674;13.074;2023-03-02T17:35:26;1.13;;;0.30;;
20232;SDS011;37438;55.674;13.074;2023-03-02T17:38:30;2.10;;;0.25;;
20232;SDS011;37438;55.674;13.074;2023-03-02T17:41:36;0.75;;;0.20;;
20232;SDS011;37438;55.674;13.074;2023-03-02T17:44:40;0.77;;;0.30;;
20232;SDS011;37438;55.674;13.074;2023-03-02T17:47:47;0.30;;;0.10;;
20232;SDS011;37438;55.674;13.074;2023-03-02T17:50:53;0.75;;;0.40;;
20232;SDS011;37438;55.674;13.074;2023-03-02T17:53:57;4.15;;;0.40;;
20232;SDS011;37438;55.674;13.074;2023-03-02T17:57:02;3.47;;;0.40;;
20232;SDS011;37438;55.674;13.074;2023-03-02T18:00:08;3.88;;;0.65;;
20232;SDS011;37438;55.674;13.074;2023-03-02T18:03:16;2.25;;;0.50;;
20232;SDS011;37438;55.674;13.074;2023-03-02T18:06:20;3.35;;;0.55;;
20232;SDS011;37438;55.674;13.074;2023-03-02T18:09:24;1.38;;;0.82;;
20232;SDS011;37438;55.674;13.074;2023-03-02T18:12:29;6.18;;;0.60;;
20232;SDS011;37438;55.674;13.074;2023-03-02T18:15:33;3.88;;;0.80;;
20232;SDS011;37438;55.674;13.074;2023-03-02T18:18:38;2.45;;;0.98;;
20232;SDS011;37438;55.674;13.074;2023-03-02T18:21:42;2.63;;;0.93;;
20232;SDS011;37438;55.674;13.074;2023-03-02T18:24:48;4.30;;;1.42;;
20232;SDS011;37438;55.674;13.074;2023-03-02T18:27:53;2.75;;;1.45;;
20232;SDS011;37438;55.674;13.074;2023-03-02T18:30:58;8.23;;;1.73;;
20232;SDS011;37438;55.674;13.074;2023-03-02T18:37:07;3.08;;;1.08;;
20232;SDS011;37438;55.674;13.074;2023-03-02T18:43:17;1.42;;;1.20;;
20232;SDS011;37438;55.674;13.074;2023-03-02T18:46:22;5.30;;;1.57;;
20232;SDS011;37438;55.674;13.074;2023-03-02T18:49:29;2.63;;;1.10;;
20232;SDS011;37438;55.674;13.074;2023-03-02T18:52:34;2.60;;;1.00;;
20232;SDS011;37438;55.674;13.074;2023-03-02T18:55:38;6.20;;;2.00;;
20232;SDS011;37438;55.674;13.074;2023-03-02T18:58:43;1.70;;;1.20;;
20232;SDS011;37438;55.674;13.074;2023-03-02T19:04:53;2.92;;;1.25;;
20232;SDS011;37438;55.674;13.074;2023-03-02T19:07:57;4.50;;;1.40;;
20232;SDS011;37438;55.674;13.074;2023-03-02T19:11:03;1.05;;;0.98;;
20232;SDS011;37438;55.674;13.074;2023-03-02T19:14:09;1.58;;;0.98;;
20232;SDS011;37438;55.674;13.074;2023-03-02T19:17:13;1.08;;;0.98;;
20232;SDS011;37438;55.674;13.074;2023-03-02T19:20:18;1.83;;;1.25;;
20232;SDS011;37438;55.674;13.074;2023-03-02T19:23:27;1.88;;;1.20;;
20232;SDS011;37438;55.674;13.074;2023-03-02T19:26:32;1.48;;;0.80;;
20232;SDS011;37438;55.674;13.074;2023-03-02T19:29:37;4.80;;;1.77;;
20232;SDS011;37438;55.674;13.074;2023-03-02T19:32:42;3.47;;;0.90;;
20232;SDS011;37438;55.674;13.074;2023-03-02T19:35:46;1.55;;;1.20;;
20232;SDS011;37438;55.674;13.074;2023-03-02T19:38:51;2.60;;;1.05;;
20232;SDS011;37438;55.674;13.074;2023-03-02T19:41:55;1.27;;;1.17;;
20232;SDS011;37438;55.674;13.074;2023-03-02T19:44:59;1.47;;;1.23;;
20232;SDS011;37438;55.674;13.074;2023-03-02T19:48:06;1.33;;;1.00;;
20232;SDS011;37438;55.674;13.074;2023-03-02T19:51:12;0.95;;;0.93;;
20232;SDS011;37438;55.674;13.074;2023-03-02T19:54:18;0.93;;;0.85;;
20232;SDS011;37438;55.674;13.074;2023-03-02T19:57:22;6.60;;;1.30;;
20232;SDS011;37438;55.674;13.074;2023-03-02T20:00:29;2.03;;;0.90;;
20232;SDS011;37438;55.674;13.074;2023-03-02T20:03:35;3.10;;;1.05;;
20232;SDS011;37438;55.674;13.074;2023-03-02T20:06:39;0.75;;;0.75;;
20232;SDS011;37438;55.674;13.074;2023-03-02T20:09:44;2.70;;;1.40;;